sensor_id;sensor_type;location;lat;lon;timestamp;P1;durP1;ratioP1;P2;durP2;ratioP2
61640;SDS011;62201;49.966;8.342;2023-05-07T00:00:01;2.65;;;1.30;;
61640;SDS011;62201;49.966;8.342;2023-05-07T00:02:28;3.13;;;1.33;;
61640;SDS011;62201;49.966;8.342;2023-05-07T00:04:54;5.07;;;1.30;;
61640;SDS011;62201;49.966;8.342;2023-05-07T00:07:20;7.15;;;1.52;;
61640;SDS011;62201;49.966;8.342;2023-05-07T00:09:45;3.63;;;1.50;;
61640;SDS011;62201;49.966;8.342;2023-05-07T00:12:11;7.38;;;1.58;;
61640;SDS011;62201;49.966;8.342;2023-05-07T00:14:36;7.00;;;1.42;;
61640;SDS011;62201;49.966;8.342;2023-05-07T00:17:01;12.50;;;1.98;;
61640;SDS011;62201;49.966;8.342;2023-05-07T00:19:27;5.97;;;1.48;;
61640;SDS011;62201;49.966;8.342;2023-05-07T00:21:52;5.88;;;1.40;;
61640;SDS011;62201;49.966;8.342;2023-05-07T00:24:22;7.32;;;1.50;;
61640;SDS011;62201;49.966;8.342;2023-05-07T00:26:47;5.95;;;1.75;;
61640;SDS011;62201;49.966;8.342;2023-05-07T00:29:13;4.60;;;1.77;;
61640;SDS011;62201;49.966;8.342;2023-05-07T00:31:38;5.35;;;1.50;;
61640;SDS011;62201;49.966;8.342;2023-05-07T00:34:03;6.25;;;1.58;;
61640;SDS011;62201;49.966;8.342;2023-05-07T00:36:29;9.13;;;1.45;;
61640;SDS011;62201;49.966;8.342;2023-05-07T00:38:56;4.65;;;1.40;;
61640;SDS011;62201;49.966;8.342;2023-05-07T00:41:22;4.90;;;1.42;;
61640;SDS011;62201;49.966;8.342;2023-05-07T00:43:47;1.85;;;1.00;;
61640;SDS011;62201;49.966;8.342;2023-05-07T00:46:13;4.38;;;1.42;;
61640;SDS011;62201;49.966;8.342;2023-05-07T00:48:38;3.75;;;1.42;;
61640;SDS011;62201;49.966;8.342;2023-05-07T00:51:04;5.50;;;1.90;;
61640;SDS011;62201;49.966;8.342;2023-05-07T00:53:30;3.83;;;1.55;;
61640;SDS011;62201;49.966;8.342;2023-05-07T00:55:55;4.78;;;1.35;;
61640;SDS011;62201;49.966;8.342;2023-05-07T00:58:21;4.10;;;1.48;;
61640;SDS011;62201;49.966;8.342;2023-05-07T01:00:47;9.35;;;1.75;;
61640;SDS011;62201;49.966;8.342;2023-05-07T01:03:12;4.75;;;1.38;;
61640;SDS011;62201;49.966;8.342;2023-05-07T01:05:38;7.47;;;1.50;;
61640;SDS011;62201;49.966;8.342;2023-05-07T01:08:03;4.07;;;1.35;;
61640;SDS011;62201;49.966;8.342;2023-05-07T01:10:30;7.40;;;1.30;;
61640;SDS011;62201;49.966;8.342;2023-05-07T01:12:55;3.25;;;1.33;;
61640;SDS011;62201;49.966;8.342;2023-05-07T01:15:22;4.63;;;1.50;;
61640;SDS011;62201;49.966;8.342;2023-05-07T01:17:48;8.13;;;1.75;;
61640;SDS011;62201;49.966;8.342;2023-05-07T01:20:13;5.47;;;1.30;;
61640;SDS011;62201;49.966;8.342;2023-05-07T01:22:39;2.80;;;1.30;;
61640;SDS011;62201;49.966;8.342;2023-05-07T01:25:06;6.03;;;1.52;;
61640;SDS011;62201;49.966;8.342;2023-05-07T01:27:35;5.93;;;1.48;;
61640;SDS011;62201;49.966;8.342;2023-05-07T01:30:02;2.72;;;1.52;;
61640;SDS011;62201;49.966;8.342;2023-05-07T01:33:13;4.00;;;2.00;;
61640;SDS011;62201;49.966;8.342;2023-05-07T01:35:15;3.20;;;1.30;;
61640;SDS011;62201;49.966;8.342;2023-05-07T01:37:45;2.28;;;1.40;;
61640;SDS011;62201;49.966;8.342;2023-05-07T01:40:12;4.30;;;1.65;;
61640;SDS011;62201;49.966;8.342;2023-05-07T01:42:38;4.25;;;1.50;;
61640;SDS011;62201;49.966;8.342;2023-05-07T01:45:04;5.18;;;1.30;;
61640;SDS011;62201;49.966;8.342;2023-05-07T01:47:30;3.40;;;1.52;;
61640;SDS011;62201;49.966;8.342;2023-05-07T01:49:56;3.28;;;1.48;;
61640;SDS011;62201;49.966;8.342;2023-05-07T01:52:22;2.60;;;1.17;;
61640;SDS011;62201;49.966;8.342;2023-05-07T01:54:47;3.47;;;1.25;;
61640;SDS011;62201;49.966;8.342;2023-05-07T01:57:13;3.72;;;1.20;;
61640;SDS011;62201;49.966;8.342;2023-05-07T01:59:38;2.33;;;1.40;;
61640;SDS011;62201;49.966;8.342;2023-05-07T02:02:03;4.25;;;1.40;;
61640;SDS011;62201;49.966;8.342;2023-05-07T02:04:29;2.80;;;1.52;;
61640;SDS011;62201;49.966;8.342;2023-05-07T02:06:54;1.98;;;1.15;;
61640;SDS011;62201;49.966;8.342;2023-05-07T02:09:20;2.42;;;1.40;;
61640;SDS011;62201;49.966;8.342;2023-05-07T02:11:46;3.83;;;1.20;;
61640;SDS011;62201;49.966;8.342;2023-05-07T02:14:11;1.77;;;1.20;;
61640;SDS011;62201;49.966;8.342;2023-05-07T02:16:36;4.55;;;1.30;;
61640;SDS011;62201;49.966;8.342;2023-05-07T02:19:02;1.75;;;1.10;;
61640;SDS011;62201;49.966;8.342;2023-05-07T02:21:27;2.65;;;1.30;;
61640;SDS011;62201;49.966;8.342;2023-05-07T02:23:53;2.75;;;1.55;;
61640;SDS011;62201;49.966;8.342;2023-05-07T02:26:18;4.13;;;1.40;;
61640;SDS011;62201;49.966;8.342;2023-05-07T02:28:44;6.03;;;1.40;;
61640;SDS011;62201;49.966;8.342;2023-05-07T02:31:09;3.20;;;1.17;;
61640;SDS011;62201;49.966;8.342;2023-05-07T02:33:34;2.60;;;1.40;;
61640;SDS011;62201;49.966;8.342;2023-05-07T02:36:10;2.05;;;1.20;;
61640;SDS011;62201;49.966;8.342;2023-05-07T02:38:37;3.60;;;1.23;;
61640;SDS011;62201;49.966;8.342;2023-05-07T02:41:02;1.60;;;1.13;;
61640;SDS011;62201;49.966;8.342;2023-05-07T02:43:28;6.35;;;1.45;;
61640;SDS011;62201;49.966;8.342;2023-05-07T02:46:03;3.67;;;1.30;;
61640;SDS011;62201;49.966;8.342;2023-05-07T02:48:29;3.42;;;1.45;;
61640;SDS011;62201;49.966;8.342;2023-05-07T02:50:55;2.70;;;1.20;;
61640;SDS011;62201;49.966;8.342;2023-05-07T02:53:20;3.83;;;1.30;;
61640;SDS011;62201;49.966;8.342;2023-05-07T02:55:46;1.77;;;1.27;;
61640;SDS011;62201;49.966;8.342;2023-05-07T02:58:11;3.05;;;1.10;;
61640;SDS011;62201;49.966;8.342;2023-05-07T03:00:37;2.50;;;1.48;;
61640;SDS011;62201;49.966;8.342;2023-05-07T03:03:02;1.88;;;1.30;;
61640;SDS011;62201;49.966;8.342;2023-05-07T03:05:27;3.65;;;1.88;;
61640;SDS011;62201;49.966;8.342;2023-05-07T03:07:53;2.83;;;1.27;;
61640;SDS011;62201;49.966;8.342;2023-05-07T03:10:18;2.28;;;1.40;;
61640;SDS011;62201;49.966;8.342;2023-05-07T03:12:44;6.60;;;1.52;;
61640;SDS011;62201;49.966;8.342;2023-05-07T03:15:09;7.90;;;1.63;;
61640;SDS011;62201;49.966;8.342;2023-05-07T03:17:36;4.15;;;1.58;;
61640;SDS011;62201;49.966;8.342;2023-05-07T03:20:02;3.80;;;1.50;;
61640;SDS011;62201;49.966;8.342;2023-05-07T03:22:27;2.90;;;1.45;;
61640;SDS011;62201;49.966;8.342;2023-05-07T03:24:52;3.83;;;1.55;;
61640;SDS011;62201;49.966;8.342;2023-05-07T03:27:18;4.35;;;1.50;;
61640;SDS011;62201;49.966;8.342;2023-05-07T03:29:43;5.07;;;1.70;;
61640;SDS011;62201;49.966;8.342;2023-05-07T03:32:08;4.90;;;1.40;;
61640;SDS011;62201;49.966;8.342;2023-05-07T03:34:34;2.85;;;1.60;;
61640;SDS011;62201;49.966;8.342;2023-05-07T03:36:59;3.38;;;1.73;;
61640;SDS011;62201;49.966;8.342;2023-05-07T03:39:25;3.47;;;1.38;;
61640;SDS011;62201;49.966;8.342;2023-05-07T03:41:50;3.90;;;1.45;;
61640;SDS011;62201;49.966;8.342;2023-05-07T03:44:16;4.70;;;1.40;;
61640;SDS011;62201;49.966;8.342;2023-05-07T03:46:41;2.72;;;1.58;;
61640;SDS011;62201;49.966;8.342;2023-05-07T03:49:06;3.63;;;1.45;;
61640;SDS011;62201;49.966;8.342;2023-05-07T03:51:32;3.90;;;1.40;;
61640;SDS011;62201;49.966;8.342;2023-05-07T03:53:57;4.68;;;1.80;;
61640;SDS011;62201;49.966;8.342;2023-05-07T03:56:23;2.95;;;1.90;;
61640;SDS011;62201;49.966;8.342;2023-05-07T03:58:51;3.67;;;1.42;;
61640;SDS011;62201;49.966;8.342;2023-05-07T04:01:17;5.03;;;1.83;;
61640;SDS011;62201;49.966;8.342;2023-05-07T04:03:42;2.80;;;1.60;;
61640;SDS011;62201;49.966;8.342;2023-05-07T04:06:07;3.70;;;1.55;;
61640;SDS011;62201;49.966;8.342;2023-05-07T04:08:33;5.63;;;1.42;;
61640;SDS011;62201;49.966;8.342;2023-05-07T04:10:58;4.40;;;1.95;;
61640;SDS011;62201;49.966;8.342;2023-05-07T04:13:24;2.75;;;1.38;;
61640;SDS011;62201;49.966;8.342;2023-05-07T04:15:54;3.22;;;1.45;;
61640;SDS011;62201;49.966;8.342;2023-05-07T04:18:20;4.07;;;1.25;;
61640;SDS011;62201;49.966;8.342;2023-05-07T04:20:46;3.65;;;1.60;;
61640;SDS011;62201;49.966;8.342;2023-05-07T04:23:12;2.47;;;1.40;;
61640;SDS011;62201;49.966;8.342;2023-05-07T04:25:38;2.70;;;1.50;;
61640;SDS011;62201;49.966;8.342;2023-05-07T04:28:03;2.33;;;1.42;;
61640;SDS011;62201;49.966;8.342;2023-05-07T04:30:29;2.63;;;1.50;;
61640;SDS011;62201;49.966;8.342;2023-05-07T04:32:55;3.25;;;1.42;;
61640;SDS011;62201;49.966;8.342;2023-05-07T04:35:21;2.03;;;1.30;;
61640;SDS011;62201;49.966;8.342;2023-05-07T04:37:46;3.42;;;1.30;;
61640;SDS011;62201;49.966;8.342;2023-05-07T04:40:12;4.50;;;1.33;;
61640;SDS011;62201;49.966;8.342;2023-05-07T04:42:38;1.95;;;1.35;;
61640;SDS011;62201;49.966;8.342;2023-05-07T04:45:03;5.65;;;1.55;;
61640;SDS011;62201;49.966;8.342;2023-05-07T04:47:29;1.92;;;1.30;;
61640;SDS011;62201;49.966;8.342;2023-05-07T04:49:55;2.30;;;1.40;;
61640;SDS011;62201;49.966;8.342;2023-05-07T04:52:20;2.22;;;1.48;;
61640;SDS011;62201;49.966;8.342;2023-05-07T04:54:46;3.03;;;1.40;;
61640;SDS011;62201;49.966;8.342;2023-05-07T04:57:11;3.17;;;1.30;;
61640;SDS011;62201;49.966;8.342;2023-05-07T04:59:36;3.00;;;1.42;;
61640;SDS011;62201;49.966;8.342;2023-05-07T05:02:02;2.35;;;1.25;;
61640;SDS011;62201;49.966;8.342;2023-05-07T05:04:29;5.15;;;1.40;;
61640;SDS011;62201;49.966;8.342;2023-05-07T05:06:54;3.05;;;1.38;;
61640;SDS011;62201;49.966;8.342;2023-05-07T05:09:20;3.20;;;1.30;;
61640;SDS011;62201;49.966;8.342;2023-05-07T05:11:45;4.82;;;1.40;;
61640;SDS011;62201;49.966;8.342;2023-05-07T05:14:10;3.35;;;1.50;;
61640;SDS011;62201;49.966;8.342;2023-05-07T05:16:36;3.17;;;1.42;;
61640;SDS011;62201;49.966;8.342;2023-05-07T05:19:02;4.45;;;1.27;;
61640;SDS011;62201;49.966;8.342;2023-05-07T05:21:27;5.63;;;1.48;;
61640;SDS011;62201;49.966;8.342;2023-05-07T05:23:53;5.00;;;1.58;;
61640;SDS011;62201;49.966;8.342;2023-05-07T05:26:19;2.20;;;1.40;;
61640;SDS011;62201;49.966;8.342;2023-05-07T05:28:46;3.30;;;1.50;;
61640;SDS011;62201;49.966;8.342;2023-05-07T05:31:11;4.68;;;1.38;;
61640;SDS011;62201;49.966;8.342;2023-05-07T05:33:37;2.15;;;1.50;;
61640;SDS011;62201;49.966;8.342;2023-05-07T05:36:02;3.30;;;1.45;;
61640;SDS011;62201;49.966;8.342;2023-05-07T05:38:28;4.95;;;1.48;;
61640;SDS011;62201;49.966;8.342;2023-05-07T05:40:54;4.68;;;1.30;;
61640;SDS011;62201;49.966;8.342;2023-05-07T05:43:19;5.82;;;1.80;;
61640;SDS011;62201;49.966;8.342;2023-05-07T05:45:45;2.63;;;1.60;;
61640;SDS011;62201;49.966;8.342;2023-05-07T05:48:10;6.15;;;1.80;;
61640;SDS011;62201;49.966;8.342;2023-05-07T05:50:35;4.43;;;1.90;;
61640;SDS011;62201;49.966;8.342;2023-05-07T05:53:01;3.00;;;1.73;;
61640;SDS011;62201;49.966;8.342;2023-05-07T05:55:27;7.05;;;1.90;;
61640;SDS011;62201;49.966;8.342;2023-05-07T05:57:52;5.38;;;2.03;;
61640;SDS011;62201;49.966;8.342;2023-05-07T06:00:18;4.53;;;1.55;;
61640;SDS011;62201;49.966;8.342;2023-05-07T06:02:47;3.83;;;1.58;;
61640;SDS011;62201;49.966;8.342;2023-05-07T06:05:12;3.83;;;1.80;;
61640;SDS011;62201;49.966;8.342;2023-05-07T06:07:38;4.63;;;1.75;;
61640;SDS011;62201;49.966;8.342;2023-05-07T06:10:03;4.97;;;1.67;;
61640;SDS011;62201;49.966;8.342;2023-05-07T06:12:29;4.55;;;1.52;;
61640;SDS011;62201;49.966;8.342;2023-05-07T06:14:54;3.63;;;1.67;;
61640;SDS011;62201;49.966;8.342;2023-05-07T06:17:20;4.45;;;1.70;;
61640;SDS011;62201;49.966;8.342;2023-05-07T06:19:45;2.08;;;1.52;;
61640;SDS011;62201;49.966;8.342;2023-05-07T06:22:10;4.20;;;1.50;;
61640;SDS011;62201;49.966;8.342;2023-05-07T06:24:36;4.07;;;1.40;;
61640;SDS011;62201;49.966;8.342;2023-05-07T06:27:01;5.97;;;1.70;;
61640;SDS011;62201;49.966;8.342;2023-05-07T06:29:27;3.97;;;1.92;;
61640;SDS011;62201;49.966;8.342;2023-05-07T06:31:52;4.53;;;1.70;;
61640;SDS011;62201;49.966;8.342;2023-05-07T06:34:18;6.13;;;1.52;;
61640;SDS011;62201;49.966;8.342;2023-05-07T06:36:43;2.58;;;1.48;;
61640;SDS011;62201;49.966;8.342;2023-05-07T06:39:09;4.55;;;1.70;;
61640;SDS011;62201;49.966;8.342;2023-05-07T06:41:34;2.90;;;1.40;;
61640;SDS011;62201;49.966;8.342;2023-05-07T06:44:01;3.05;;;1.67;;
61640;SDS011;62201;49.966;8.342;2023-05-07T06:46:27;5.00;;;1.40;;
61640;SDS011;62201;49.966;8.342;2023-05-07T06:48:53;2.90;;;1.50;;
61640;SDS011;62201;49.966;8.342;2023-05-07T06:51:18;4.90;;;1.50;;
61640;SDS011;62201;49.966;8.342;2023-05-07T06:53:43;3.63;;;1.52;;
61640;SDS011;62201;49.966;8.342;2023-05-07T06:56:09;3.30;;;1.98;;
61640;SDS011;62201;49.966;8.342;2023-05-07T06:58:34;4.18;;;1.83;;
61640;SDS011;62201;49.966;8.342;2023-05-07T07:01:00;3.58;;;1.52;;
61640;SDS011;62201;49.966;8.342;2023-05-07T07:03:25;5.60;;;2.35;;
61640;SDS011;62201;49.966;8.342;2023-05-07T07:05:51;2.22;;;1.90;;
61640;SDS011;62201;49.966;8.342;2023-05-07T07:08:18;6.45;;;1.70;;
61640;SDS011;62201;49.966;8.342;2023-05-07T07:10:43;4.03;;;1.50;;
61640;SDS011;62201;49.966;8.342;2023-05-07T07:13:08;3.75;;;1.50;;
61640;SDS011;62201;49.966;8.342;2023-05-07T07:15:34;3.72;;;1.55;;
61640;SDS011;62201;49.966;8.342;2023-05-07T07:17:59;2.70;;;1.50;;
61640;SDS011;62201;49.966;8.342;2023-05-07T07:20:25;1.77;;;1.48;;
61640;SDS011;62201;49.966;8.342;2023-05-07T07:22:50;4.03;;;1.70;;
61640;SDS011;62201;49.966;8.342;2023-05-07T07:25:15;3.75;;;1.67;;
61640;SDS011;62201;49.966;8.342;2023-05-07T07:27:41;2.80;;;1.50;;
61640;SDS011;62201;49.966;8.342;2023-05-07T07:30:06;2.83;;;1.60;;
61640;SDS011;62201;49.966;8.342;2023-05-07T07:32:33;3.40;;;1.65;;
61640;SDS011;62201;49.966;8.342;2023-05-07T07:34:59;2.78;;;1.45;;
61640;SDS011;62201;49.966;8.342;2023-05-07T07:37:24;2.15;;;1.63;;
61640;SDS011;62201;49.966;8.342;2023-05-07T07:39:50;6.43;;;1.60;;
61640;SDS011;62201;49.966;8.342;2023-05-07T07:42:15;6.97;;;1.50;;
61640;SDS011;62201;49.966;8.342;2023-05-07T07:44:41;2.03;;;1.55;;
61640;SDS011;62201;49.966;8.342;2023-05-07T07:47:06;5.63;;;1.73;;
61640;SDS011;62201;49.966;8.342;2023-05-07T07:49:32;3.90;;;1.60;;
61640;SDS011;62201;49.966;8.342;2023-05-07T07:51:57;3.72;;;2.00;;
61640;SDS011;62201;49.966;8.342;2023-05-07T07:54:24;4.22;;;1.73;;
61640;SDS011;62201;49.966;8.342;2023-05-07T07:56:50;1.75;;;1.35;;
61640;SDS011;62201;49.966;8.342;2023-05-07T07:59:15;4.68;;;1.75;;
61640;SDS011;62201;49.966;8.342;2023-05-07T08:01:43;5.18;;;1.80;;
61640;SDS011;62201;49.966;8.342;2023-05-07T08:04:09;5.18;;;1.70;;
61640;SDS011;62201;49.966;8.342;2023-05-07T08:06:35;2.45;;;1.70;;
61640;SDS011;62201;49.966;8.342;2023-05-07T08:09:00;3.25;;;1.60;;
61640;SDS011;62201;49.966;8.342;2023-05-07T08:11:26;2.30;;;1.60;;
61640;SDS011;62201;49.966;8.342;2023-05-07T08:13:51;3.97;;;1.67;;
61640;SDS011;62201;49.966;8.342;2023-05-07T08:16:17;2.95;;;1.92;;
61640;SDS011;62201;49.966;8.342;2023-05-07T08:18:42;2.35;;;1.90;;
61640;SDS011;62201;49.966;8.342;2023-05-07T08:21:08;7.88;;;1.77;;
61640;SDS011;62201;49.966;8.342;2023-05-07T08:23:33;3.53;;;1.63;;
61640;SDS011;62201;49.966;8.342;2023-05-07T08:25:59;2.75;;;1.58;;
61640;SDS011;62201;49.966;8.342;2023-05-07T08:28:25;8.15;;;1.77;;
61640;SDS011;62201;49.966;8.342;2023-05-07T08:30:50;5.10;;;1.80;;
61640;SDS011;62201;49.966;8.342;2023-05-07T08:33:16;3.80;;;1.55;;
61640;SDS011;62201;49.966;8.342;2023-05-07T08:35:41;4.07;;;1.52;;
61640;SDS011;62201;49.966;8.342;2023-05-07T08:38:07;2.30;;;1.80;;
61640;SDS011;62201;49.966;8.342;2023-05-07T08:40:34;3.33;;;1.80;;
61640;SDS011;62201;49.966;8.342;2023-05-07T08:43:05;3.17;;;1.57;;
61640;SDS011;62201;49.966;8.342;2023-05-07T08:45:31;3.15;;;1.70;;
61640;SDS011;62201;49.966;8.342;2023-05-07T08:47:58;2.38;;;1.50;;
61640;SDS011;62201;49.966;8.342;2023-05-07T08:50:28;3.33;;;1.75;;
61640;SDS011;62201;49.966;8.342;2023-05-07T08:52:54;2.72;;;1.88;;
61640;SDS011;62201;49.966;8.342;2023-05-07T08:55:22;2.28;;;1.40;;
61640;SDS011;62201;49.966;8.342;2023-05-07T08:57:49;3.08;;;1.58;;
61640;SDS011;62201;49.966;8.342;2023-05-07T09:00:15;2.85;;;1.70;;
61640;SDS011;62201;49.966;8.342;2023-05-07T09:02:41;4.20;;;1.70;;
61640;SDS011;62201;49.966;8.342;2023-05-07T09:05:06;5.45;;;1.90;;
61640;SDS011;62201;49.966;8.342;2023-05-07T09:07:32;3.17;;;1.50;;
61640;SDS011;62201;49.966;8.342;2023-05-07T09:09:58;3.88;;;1.70;;
61640;SDS011;62201;49.966;8.342;2023-05-07T09:12:24;1.98;;;1.65;;
61640;SDS011;62201;49.966;8.342;2023-05-07T09:14:49;2.72;;;1.70;;
61640;SDS011;62201;49.966;8.342;2023-05-07T09:17:15;3.60;;;1.77;;
61640;SDS011;62201;49.966;8.342;2023-05-07T09:19:42;2.22;;;1.73;;
61640;SDS011;62201;49.966;8.342;2023-05-07T09:22:09;1.83;;;1.70;;
61640;SDS011;62201;49.966;8.342;2023-05-07T09:24:34;4.03;;;1.58;;
61640;SDS011;62201;49.966;8.342;2023-05-07T09:27:03;2.90;;;1.67;;
61640;SDS011;62201;49.966;8.342;2023-05-07T09:29:29;2.42;;;1.60;;
61640;SDS011;62201;49.966;8.342;2023-05-07T09:31:55;3.38;;;1.70;;
61640;SDS011;62201;49.966;8.342;2023-05-07T09:34:21;1.48;;;1.38;;
61640;SDS011;62201;49.966;8.342;2023-05-07T09:36:47;2.90;;;1.70;;
61640;SDS011;62201;49.966;8.342;2023-05-07T09:39:13;2.45;;;1.50;;
61640;SDS011;62201;49.966;8.342;2023-05-07T09:41:45;1.77;;;1.40;;
61640;SDS011;62201;49.966;8.342;2023-05-07T09:44:11;3.53;;;1.40;;
61640;SDS011;62201;49.966;8.342;2023-05-07T09:46:38;3.20;;;1.90;;
61640;SDS011;62201;49.966;8.342;2023-05-07T09:49:07;2.50;;;1.65;;
61640;SDS011;62201;49.966;8.342;2023-05-07T09:51:56;2.10;;;1.60;;
61640;SDS011;62201;49.966;8.342;2023-05-07T09:54:24;4.78;;;1.90;;
61640;SDS011;62201;49.966;8.342;2023-05-07T09:56:51;4.28;;;1.60;;
61640;SDS011;62201;49.966;8.342;2023-05-07T09:59:17;5.30;;;1.92;;
61640;SDS011;62201;49.966;8.342;2023-05-07T10:01:45;3.08;;;1.60;;
61640;SDS011;62201;49.966;8.342;2023-05-07T10:04:11;2.10;;;1.55;;
61640;SDS011;62201;49.966;8.342;2023-05-07T10:06:37;2.80;;;1.60;;
61640;SDS011;62201;49.966;8.342;2023-05-07T10:09:03;2.97;;;1.60;;
61640;SDS011;62201;49.966;8.342;2023-05-07T10:11:33;2.88;;;1.60;;
61640;SDS011;62201;49.966;8.342;2023-05-07T10:13:59;3.28;;;1.65;;
61640;SDS011;62201;49.966;8.342;2023-05-07T10:16:31;2.22;;;1.52;;
61640;SDS011;62201;49.966;8.342;2023-05-07T10:19:01;3.55;;;1.75;;
61640;SDS011;62201;49.966;8.342;2023-05-07T10:21:30;2.38;;;2.00;;
61640;SDS011;62201;49.966;8.342;2023-05-07T10:24:20;3.30;;;2.15;;
61640;SDS011;62201;49.966;8.342;2023-05-07T10:26:49;2.70;;;1.60;;
61640;SDS011;62201;49.966;8.342;2023-05-07T10:31:59;3.95;;;1.88;;
61640;SDS011;62201;49.966;8.342;2023-05-07T10:34:43;2.85;;;1.70;;
61640;SDS011;62201;49.966;8.342;2023-05-07T10:37:10;4.05;;;1.90;;
61640;SDS011;62201;49.966;8.342;2023-05-07T10:39:36;4.32;;;1.90;;
61640;SDS011;62201;49.966;8.342;2023-05-07T10:42:09;4.72;;;1.75;;
61640;SDS011;62201;49.966;8.342;2023-05-07T10:44:35;4.15;;;1.80;;
61640;SDS011;62201;49.966;8.342;2023-05-07T10:47:12;1.85;;;1.45;;
61640;SDS011;62201;49.966;8.342;2023-05-07T10:52:27;2.83;;;1.85;;
61640;SDS011;62201;49.966;8.342;2023-05-07T10:55:38;3.30;;;1.75;;
61640;SDS011;62201;49.966;8.342;2023-05-07T10:57:44;2.78;;;1.75;;
61640;SDS011;62201;49.966;8.342;2023-05-07T11:05:25;2.50;;;1.67;;
61640;SDS011;62201;49.966;8.342;2023-05-07T11:08:02;3.75;;;2.13;;
61640;SDS011;62201;49.966;8.342;2023-05-07T11:13:16;5.70;;;1.80;;
61640;SDS011;62201;49.966;8.342;2023-05-07T11:15:43;3.08;;;1.92;;
61640;SDS011;62201;49.966;8.342;2023-05-07T11:18:09;3.40;;;1.50;;
61640;SDS011;62201;49.966;8.342;2023-05-07T11:20:52;3.10;;;1.70;;
61640;SDS011;62201;49.966;8.342;2023-05-07T11:26:07;2.85;;;1.92;;
61640;SDS011;62201;49.966;8.342;2023-05-07T11:28:40;2.63;;;1.58;;
61640;SDS011;62201;49.966;8.342;2023-05-07T11:31:06;3.08;;;1.67;;
61640;SDS011;62201;49.966;8.342;2023-05-07T11:33:33;1.85;;;1.67;;
61640;SDS011;62201;49.966;8.342;2023-05-07T11:35:59;1.77;;;1.52;;
61640;SDS011;62201;49.966;8.342;2023-05-07T11:38:26;2.13;;;1.55;;
61640;SDS011;62201;49.966;8.342;2023-05-07T11:40:54;3.10;;;1.88;;
61640;SDS011;62201;49.966;8.342;2023-05-07T11:43:21;4.75;;;1.50;;
61640;SDS011;62201;49.966;8.342;2023-05-07T11:45:47;1.67;;;1.50;;
61640;SDS011;62201;49.966;8.342;2023-05-07T11:48:13;2.10;;;1.50;;
61640;SDS011;62201;49.966;8.342;2023-05-07T11:53:27;2.65;;;1.60;;
61640;SDS011;62201;49.966;8.342;2023-05-07T11:55:59;3.60;;;1.50;;
61640;SDS011;62201;49.966;8.342;2023-05-07T11:58:25;2.40;;;1.65;;
61640;SDS011;62201;49.966;8.342;2023-05-07T12:00:50;2.22;;;1.30;;
61640;SDS011;62201;49.966;8.342;2023-05-07T12:03:19;5.82;;;1.23;;
61640;SDS011;62201;49.966;8.342;2023-05-07T12:05:46;2.47;;;1.48;;
61640;SDS011;62201;49.966;8.342;2023-05-07T12:08:16;2.95;;;1.20;;
61640;SDS011;62201;49.966;8.342;2023-05-07T12:10:42;4.05;;;1.30;;
61640;SDS011;62201;49.966;8.342;2023-05-07T12:13:16;2.63;;;1.55;;
61640;SDS011;62201;49.966;8.342;2023-05-07T12:15:42;2.22;;;1.27;;
61640;SDS011;62201;49.966;8.342;2023-05-07T12:18:07;2.00;;;1.08;;
61640;SDS011;62201;49.966;8.342;2023-05-07T12:20:34;2.65;;;0.90;;
61640;SDS011;62201;49.966;8.342;2023-05-07T12:23:01;1.60;;;1.00;;
61640;SDS011;62201;49.966;8.342;2023-05-07T12:25:26;3.65;;;1.00;;
61640;SDS011;62201;49.966;8.342;2023-05-07T12:27:54;2.40;;;0.98;;
61640;SDS011;62201;49.966;8.342;2023-05-07T12:30:20;3.00;;;1.05;;
61640;SDS011;62201;49.966;8.342;2023-05-07T12:32:46;1.40;;;1.00;;
61640;SDS011;62201;49.966;8.342;2023-05-07T12:35:12;2.22;;;1.08;;
61640;SDS011;62201;49.966;8.342;2023-05-07T12:37:37;2.35;;;1.42;;
61640;SDS011;62201;49.966;8.342;2023-05-07T12:40:03;2.17;;;1.40;;
61640;SDS011;62201;49.966;8.342;2023-05-07T12:42:36;2.35;;;1.00;;
61640;SDS011;62201;49.966;8.342;2023-05-07T12:47:54;1.33;;;1.10;;
61640;SDS011;62201;49.966;8.342;2023-05-07T12:50:20;3.63;;;1.02;;
61640;SDS011;62201;49.966;8.342;2023-05-07T12:52:48;3.28;;;1.00;;
61640;SDS011;62201;49.966;8.342;2023-05-07T12:55:14;4.18;;;1.30;;
61640;SDS011;62201;49.966;8.342;2023-05-07T12:57:41;1.92;;;1.13;;
61640;SDS011;62201;49.966;8.342;2023-05-07T13:00:08;1.48;;;1.00;;
61640;SDS011;62201;49.966;8.342;2023-05-07T13:02:38;3.42;;;1.02;;
61640;SDS011;62201;49.966;8.342;2023-05-07T13:05:05;4.32;;;1.35;;
61640;SDS011;62201;49.966;8.342;2023-05-07T13:07:31;2.38;;;1.23;;
61640;SDS011;62201;49.966;8.342;2023-05-07T13:09:56;2.75;;;1.45;;
61640;SDS011;62201;49.966;8.342;2023-05-07T13:12:22;1.67;;;1.10;;
61640;SDS011;62201;49.966;8.342;2023-05-07T13:14:47;3.85;;;1.00;;
61640;SDS011;62201;49.966;8.342;2023-05-07T13:17:12;3.70;;;1.10;;
61640;SDS011;62201;49.966;8.342;2023-05-07T13:19:38;1.60;;;1.08;;
61640;SDS011;62201;49.966;8.342;2023-05-07T13:22:03;1.95;;;1.23;;
61640;SDS011;62201;49.966;8.342;2023-05-07T13:24:29;2.75;;;1.10;;
61640;SDS011;62201;49.966;8.342;2023-05-07T13:26:54;3.90;;;1.15;;
61640;SDS011;62201;49.966;8.342;2023-05-07T13:29:20;2.35;;;1.08;;
61640;SDS011;62201;49.966;8.342;2023-05-07T13:31:50;1.00;;;1.00;;
61640;SDS011;62201;49.966;8.342;2023-05-07T13:34:15;2.60;;;1.30;;
61640;SDS011;62201;49.966;8.342;2023-05-07T13:36:41;1.38;;;1.17;;
61640;SDS011;62201;49.966;8.342;2023-05-07T13:39:06;2.42;;;1.20;;
61640;SDS011;62201;49.966;8.342;2023-05-07T13:41:32;2.50;;;1.23;;
61640;SDS011;62201;49.966;8.342;2023-05-07T13:43:58;5.32;;;1.25;;
61640;SDS011;62201;49.966;8.342;2023-05-07T13:46:23;1.63;;;1.20;;
61640;SDS011;62201;49.966;8.342;2023-05-07T13:48:48;1.92;;;1.00;;
61640;SDS011;62201;49.966;8.342;2023-05-07T13:51:15;2.15;;;1.10;;
61640;SDS011;62201;49.966;8.342;2023-05-07T13:53:41;1.52;;;1.00;;
61640;SDS011;62201;49.966;8.342;2023-05-07T13:56:07;1.80;;;1.00;;
61640;SDS011;62201;49.966;8.342;2023-05-07T13:58:32;2.42;;;1.20;;
61640;SDS011;62201;49.966;8.342;2023-05-07T14:00:58;5.93;;;1.42;;
61640;SDS011;62201;49.966;8.342;2023-05-07T14:03:23;2.45;;;1.02;;
61640;SDS011;62201;49.966;8.342;2023-05-07T14:05:49;2.25;;;0.90;;
61640;SDS011;62201;49.966;8.342;2023-05-07T14:08:14;1.40;;;0.98;;
61640;SDS011;62201;49.966;8.342;2023-05-07T14:10:40;1.98;;;1.00;;
61640;SDS011;62201;49.966;8.342;2023-05-07T14:13:05;1.88;;;1.10;;
61640;SDS011;62201;49.966;8.342;2023-05-07T14:15:31;4.75;;;1.00;;
61640;SDS011;62201;49.966;8.342;2023-05-07T14:17:57;1.20;;;0.93;;
61640;SDS011;62201;49.966;8.342;2023-05-07T14:20:24;1.42;;;0.98;;
61640;SDS011;62201;49.966;8.342;2023-05-07T14:22:50;2.08;;;1.38;;
61640;SDS011;62201;49.966;8.342;2023-05-07T14:25:16;1.40;;;1.20;;
61640;SDS011;62201;49.966;8.342;2023-05-07T14:27:41;1.10;;;1.00;;
61640;SDS011;62201;49.966;8.342;2023-05-07T14:30:07;4.45;;;1.00;;
61640;SDS011;62201;49.966;8.342;2023-05-07T14:32:33;2.50;;;1.20;;
61640;SDS011;62201;49.966;8.342;2023-05-07T14:34:58;2.70;;;1.45;;
61640;SDS011;62201;49.966;8.342;2023-05-07T14:37:24;2.67;;;1.10;;
61640;SDS011;62201;49.966;8.342;2023-05-07T14:39:49;1.15;;;1.00;;
61640;SDS011;62201;49.966;8.342;2023-05-07T14:42:15;2.70;;;1.05;;
61640;SDS011;62201;49.966;8.342;2023-05-07T14:44:40;2.05;;;1.20;;
61640;SDS011;62201;49.966;8.342;2023-05-07T14:47:06;1.88;;;1.27;;
61640;SDS011;62201;49.966;8.342;2023-05-07T14:49:32;2.95;;;1.10;;
61640;SDS011;62201;49.966;8.342;2023-05-07T14:51:58;3.30;;;1.20;;
61640;SDS011;62201;49.966;8.342;2023-05-07T14:54:27;2.10;;;1.17;;
61640;SDS011;62201;49.966;8.342;2023-05-07T14:56:52;3.47;;;1.30;;
61640;SDS011;62201;49.966;8.342;2023-05-07T14:59:18;4.38;;;1.45;;
61640;SDS011;62201;49.966;8.342;2023-05-07T15:01:46;1.77;;;1.30;;
61640;SDS011;62201;49.966;8.342;2023-05-07T15:04:11;3.78;;;1.38;;